sensor_id;sensor_type;location;lat;lon;timestamp;P1;durP1;ratioP1;P2;durP2;ratioP2
74624;SDS011;63131;52.298;8.056;2023-04-25T00:01:44;8.40;;;2.83;;
74624;SDS011;63131;52.298;8.056;2023-04-25T00:04:09;17.23;;;3.92;;
74624;SDS011;63131;52.298;8.056;2023-04-25T00:09:02;9.63;;;3.08;;
74624;SDS011;63131;52.298;8.056;2023-04-25T00:11:34;14.57;;;4.78;;
74624;SDS011;63131;52.298;8.056;2023-04-25T00:13:59;14.00;;;6.30;;
74624;SDS011;63131;52.298;8.056;2023-04-25T00:16:26;11.73;;;4.78;;
74624;SDS011;63131;52.298;8.056;2023-04-25T00:18:52;11.23;;;5.43;;
74624;SDS011;63131;52.298;8.056;2023-04-25T00:21:19;11.85;;;4.57;;
74624;SDS011;63131;52.298;8.056;2023-04-25T00:23:45;13.77;;;4.75;;
74624;SDS011;63131;52.298;8.056;2023-04-25T00:26:10;11.95;;;3.30;;
74624;SDS011;63131;52.298;8.056;2023-04-25T00:28:36;9.68;;;3.17;;
74624;SDS011;63131;52.298;8.056;2023-04-25T00:31:02;10.63;;;4.28;;
74624;SDS011;63131;52.298;8.056;2023-04-25T00:33:28;9.90;;;3.10;;
74624;SDS011;63131;52.298;8.056;2023-04-25T00:35:53;8.77;;;2.97;;
74624;SDS011;63131;52.298;8.056;2023-04-25T00:38:19;9.98;;;3.00;;
74624;SDS011;63131;52.298;8.056;2023-04-25T00:40:44;7.68;;;2.92;;
74624;SDS011;63131;52.298;8.056;2023-04-25T00:43:09;7.45;;;2.50;;
74624;SDS011;63131;52.298;8.056;2023-04-25T00:45:34;8.15;;;2.40;;
74624;SDS011;63131;52.298;8.056;2023-04-25T00:48:03;8.93;;;2.85;;
74624;SDS011;63131;52.298;8.056;2023-04-25T00:50:29;12.13;;;2.60;;
74624;SDS011;63131;52.298;8.056;2023-04-25T00:52:55;10.45;;;3.35;;
74624;SDS011;63131;52.298;8.056;2023-04-25T00:55:20;9.73;;;2.35;;
74624;SDS011;63131;52.298;8.056;2023-04-25T00:57:46;12.95;;;2.40;;
74624;SDS011;63131;52.298;8.056;2023-04-25T01:00:12;9.80;;;2.55;;
74624;SDS011;63131;52.298;8.056;2023-04-25T01:02:39;10.82;;;2.78;;
74624;SDS011;63131;52.298;8.056;2023-04-25T01:05:06;15.82;;;2.47;;
74624;SDS011;63131;52.298;8.056;2023-04-25T01:07:31;12.82;;;2.88;;
74624;SDS011;63131;52.298;8.056;2023-04-25T01:09:56;14.18;;;3.30;;
74624;SDS011;63131;52.298;8.056;2023-04-25T01:12:22;10.00;;;2.78;;
74624;SDS011;63131;52.298;8.056;2023-04-25T01:14:48;18.13;;;3.10;;
74624;SDS011;63131;52.298;8.056;2023-04-25T01:17:13;10.45;;;2.63;;
74624;SDS011;63131;52.298;8.056;2023-04-25T01:19:39;10.50;;;3.15;;
74624;SDS011;63131;52.298;8.056;2023-04-25T01:22:05;13.45;;;2.95;;
74624;SDS011;63131;52.298;8.056;2023-04-25T01:24:31;12.88;;;2.58;;
74624;SDS011;63131;52.298;8.056;2023-04-25T01:26:57;9.95;;;2.45;;
74624;SDS011;63131;52.298;8.056;2023-04-25T01:29:24;9.52;;;2.58;;
74624;SDS011;63131;52.298;8.056;2023-04-25T01:31:50;11.70;;;2.60;;
74624;SDS011;63131;52.298;8.056;2023-04-25T01:36:41;13.63;;;2.97;;
74624;SDS011;63131;52.298;8.056;2023-04-25T01:39:07;9.18;;;2.40;;
74624;SDS011;63131;52.298;8.056;2023-04-25T01:41:32;10.63;;;3.60;;
74624;SDS011;63131;52.298;8.056;2023-04-25T01:43:59;12.15;;;3.40;;
74624;SDS011;63131;52.298;8.056;2023-04-25T01:46:25;14.02;;;2.92;;
74624;SDS011;63131;52.298;8.056;2023-04-25T01:48:50;15.27;;;3.17;;
74624;SDS011;63131;52.298;8.056;2023-04-25T01:51:16;21.10;;;3.13;;
74624;SDS011;63131;52.298;8.056;2023-04-25T01:53:41;8.77;;;2.92;;
74624;SDS011;63131;52.298;8.056;2023-04-25T01:56:07;10.82;;;2.90;;
74624;SDS011;63131;52.298;8.056;2023-04-25T01:58:33;14.45;;;3.65;;
74624;SDS011;63131;52.298;8.056;2023-04-25T02:00:58;10.15;;;2.92;;
74624;SDS011;63131;52.298;8.056;2023-04-25T02:03:23;17.42;;;3.15;;
74624;SDS011;63131;52.298;8.056;2023-04-25T02:05:49;15.70;;;3.40;;
74624;SDS011;63131;52.298;8.056;2023-04-25T02:08:16;13.00;;;3.40;;
74624;SDS011;63131;52.298;8.056;2023-04-25T02:10:41;11.30;;;2.83;;
74624;SDS011;63131;52.298;8.056;2023-04-25T02:13:06;13.88;;;3.03;;
74624;SDS011;63131;52.298;8.056;2023-04-25T02:15:32;6.30;;;1.95;;
74624;SDS011;63131;52.298;8.056;2023-04-25T02:17:57;15.68;;;3.03;;
74624;SDS011;63131;52.298;8.056;2023-04-25T02:20:23;8.60;;;2.50;;
74624;SDS011;63131;52.298;8.056;2023-04-25T02:22:49;12.80;;;2.95;;
74624;SDS011;63131;52.298;8.056;2023-04-25T02:25:14;12.05;;;2.80;;
74624;SDS011;63131;52.298;8.056;2023-04-25T02:27:41;11.05;;;2.75;;
74624;SDS011;63131;52.298;8.056;2023-04-25T02:30:06;10.93;;;2.95;;
74624;SDS011;63131;52.298;8.056;2023-04-25T02:32:32;10.43;;;2.67;;
74624;SDS011;63131;52.298;8.056;2023-04-25T02:34:59;9.88;;;2.63;;
74624;SDS011;63131;52.298;8.056;2023-04-25T02:37:28;10.35;;;2.75;;
74624;SDS011;63131;52.298;8.056;2023-04-25T02:39:58;12.65;;;3.85;;
74624;SDS011;63131;52.298;8.056;2023-04-25T02:42:23;11.55;;;2.40;;
74624;SDS011;63131;52.298;8.056;2023-04-25T02:44:48;10.75;;;2.20;;
74624;SDS011;63131;52.298;8.056;2023-04-25T02:47:14;10.00;;;2.45;;
74624;SDS011;63131;52.298;8.056;2023-04-25T02:49:39;11.90;;;3.05;;
74624;SDS011;63131;52.298;8.056;2023-04-25T02:52:05;12.15;;;2.88;;
74624;SDS011;63131;52.298;8.056;2023-04-25T02:54:30;11.02;;;3.13;;
74624;SDS011;63131;52.298;8.056;2023-04-25T02:56:56;15.18;;;2.72;;
74624;SDS011;63131;52.298;8.056;2023-04-25T02:59:21;13.07;;;3.05;;
74624;SDS011;63131;52.298;8.056;2023-04-25T03:01:46;14.68;;;2.90;;
74624;SDS011;63131;52.298;8.056;2023-04-25T03:04:12;12.05;;;4.18;;
74624;SDS011;63131;52.298;8.056;2023-04-25T03:06:37;7.72;;;2.05;;
74624;SDS011;63131;52.298;8.056;2023-04-25T03:09:02;7.78;;;2.30;;
74624;SDS011;63131;52.298;8.056;2023-04-25T03:11:28;9.60;;;2.72;;
74624;SDS011;63131;52.298;8.056;2023-04-25T03:13:54;11.25;;;2.42;;
74624;SDS011;63131;52.298;8.056;2023-04-25T03:16:19;7.70;;;2.28;;
74624;SDS011;63131;52.298;8.056;2023-04-25T03:18:44;8.40;;;1.95;;
74624;SDS011;63131;52.298;8.056;2023-04-25T03:21:10;9.43;;;2.58;;
74624;SDS011;63131;52.298;8.056;2023-04-25T03:23:35;12.30;;;2.42;;
74624;SDS011;63131;52.298;8.056;2023-04-25T03:26:00;12.88;;;3.22;;
74624;SDS011;63131;52.298;8.056;2023-04-25T03:28:25;20.00;;;5.30;;
74624;SDS011;63131;52.298;8.056;2023-04-25T03:30:51;9.18;;;2.50;;
74624;SDS011;63131;52.298;8.056;2023-04-25T03:33:16;11.32;;;3.05;;
74624;SDS011;63131;52.298;8.056;2023-04-25T03:35:41;12.77;;;2.88;;
74624;SDS011;63131;52.298;8.056;2023-04-25T03:38:07;10.82;;;3.30;;
74624;SDS011;63131;52.298;8.056;2023-04-25T03:40:33;11.15;;;2.92;;
74624;SDS011;63131;52.298;8.056;2023-04-25T03:42:58;9.98;;;2.67;;
74624;SDS011;63131;52.298;8.056;2023-04-25T03:45:23;11.93;;;3.17;;
74624;SDS011;63131;52.298;8.056;2023-04-25T03:47:49;10.70;;;2.85;;
74624;SDS011;63131;52.298;8.056;2023-04-25T03:50:14;10.07;;;2.85;;
74624;SDS011;63131;52.298;8.056;2023-04-25T03:52:40;10.27;;;2.70;;
74624;SDS011;63131;52.298;8.056;2023-04-25T03:55:05;9.73;;;2.75;;
74624;SDS011;63131;52.298;8.056;2023-04-25T03:57:31;9.20;;;2.97;;
74624;SDS011;63131;52.298;8.056;2023-04-25T03:59:56;8.45;;;2.15;;
74624;SDS011;63131;52.298;8.056;2023-04-25T04:02:21;11.45;;;3.17;;
74624;SDS011;63131;52.298;8.056;2023-04-25T04:04:47;9.93;;;2.20;;
74624;SDS011;63131;52.298;8.056;2023-04-25T04:07:12;6.53;;;2.25;;
74624;SDS011;63131;52.298;8.056;2023-04-25T04:09:37;11.25;;;3.78;;
74624;SDS011;63131;52.298;8.056;2023-04-25T04:12:03;10.00;;;2.45;;
74624;SDS011;63131;52.298;8.056;2023-04-25T04:14:28;14.77;;;3.03;;
74624;SDS011;63131;52.298;8.056;2023-04-25T04:16:53;7.90;;;2.05;;
74624;SDS011;63131;52.298;8.056;2023-04-25T04:19:19;10.13;;;2.90;;
74624;SDS011;63131;52.298;8.056;2023-04-25T04:21:45;13.02;;;2.97;;
74624;SDS011;63131;52.298;8.056;2023-04-25T04:24:10;11.95;;;2.67;;
74624;SDS011;63131;52.298;8.056;2023-04-25T04:26:36;11.18;;;3.15;;
74624;SDS011;63131;52.298;8.056;2023-04-25T04:29:02;13.73;;;3.00;;
74624;SDS011;63131;52.298;8.056;2023-04-25T04:31:27;11.55;;;3.03;;
74624;SDS011;63131;52.298;8.056;2023-04-25T04:33:53;10.55;;;3.72;;
74624;SDS011;63131;52.298;8.056;2023-04-25T04:36:18;12.75;;;3.42;;
74624;SDS011;63131;52.298;8.056;2023-04-25T04:38:46;12.20;;;3.63;;
74624;SDS011;63131;52.298;8.056;2023-04-25T04:41:12;7.88;;;2.65;;
74624;SDS011;63131;52.298;8.056;2023-04-25T04:43:37;6.05;;;2.33;;
74624;SDS011;63131;52.298;8.056;2023-04-25T04:46:04;9.48;;;3.10;;
74624;SDS011;63131;52.298;8.056;2023-04-25T04:48:31;12.40;;;2.67;;
74624;SDS011;63131;52.298;8.056;2023-04-25T04:50:59;11.50;;;2.83;;
74624;SDS011;63131;52.298;8.056;2023-04-25T04:53:25;16.42;;;5.53;;
74624;SDS011;63131;52.298;8.056;2023-04-25T04:55:51;8.63;;;2.58;;
74624;SDS011;63131;52.298;8.056;2023-04-25T04:58:16;11.43;;;4.25;;
74624;SDS011;63131;52.298;8.056;2023-04-25T05:00:44;13.07;;;3.05;;
74624;SDS011;63131;52.298;8.056;2023-04-25T05:03:10;14.70;;;4.57;;
74624;SDS011;63131;52.298;8.056;2023-04-25T05:05:36;16.38;;;4.07;;
74624;SDS011;63131;52.298;8.056;2023-04-25T05:08:04;12.82;;;3.53;;
74624;SDS011;63131;52.298;8.056;2023-04-25T05:10:30;10.95;;;3.72;;
74624;SDS011;63131;52.298;8.056;2023-04-25T05:12:55;19.63;;;5.25;;
74624;SDS011;63131;52.298;8.056;2023-04-25T05:15:20;14.18;;;4.13;;
74624;SDS011;63131;52.298;8.056;2023-04-25T05:17:46;12.15;;;3.30;;
74624;SDS011;63131;52.298;8.056;2023-04-25T05:20:11;12.82;;;3.70;;
74624;SDS011;63131;52.298;8.056;2023-04-25T05:22:38;10.15;;;3.30;;
74624;SDS011;63131;52.298;8.056;2023-04-25T05:25:04;10.45;;;3.90;;
74624;SDS011;63131;52.298;8.056;2023-04-25T05:27:30;11.25;;;2.90;;
74624;SDS011;63131;52.298;8.056;2023-04-25T05:29:55;13.50;;;3.38;;
74624;SDS011;63131;52.298;8.056;2023-04-25T05:32:21;9.68;;;3.22;;
74624;SDS011;63131;52.298;8.056;2023-04-25T05:34:46;9.77;;;3.65;;
74624;SDS011;63131;52.298;8.056;2023-04-25T05:37:11;15.90;;;3.38;;
74624;SDS011;63131;52.298;8.056;2023-04-25T05:39:37;9.07;;;2.75;;
74624;SDS011;63131;52.298;8.056;2023-04-25T05:42:02;9.30;;;4.00;;
74624;SDS011;63131;52.298;8.056;2023-04-25T05:44:28;10.48;;;2.63;;
74624;SDS011;63131;52.298;8.056;2023-04-25T05:46:54;9.88;;;2.50;;
74624;SDS011;63131;52.298;8.056;2023-04-25T05:49:20;13.15;;;3.60;;
74624;SDS011;63131;52.298;8.056;2023-04-25T05:51:45;7.93;;;2.47;;
74624;SDS011;63131;52.298;8.056;2023-04-25T05:54:11;9.13;;;2.65;;
74624;SDS011;63131;52.298;8.056;2023-04-25T05:56:36;18.35;;;3.55;;
74624;SDS011;63131;52.298;8.056;2023-04-25T05:59:01;11.75;;;2.95;;
74624;SDS011;63131;52.298;8.056;2023-04-25T06:01:28;12.25;;;2.72;;
74624;SDS011;63131;52.298;8.056;2023-04-25T06:03:53;11.88;;;3.20;;
74624;SDS011;63131;52.298;8.056;2023-04-25T06:06:18;12.43;;;2.95;;
74624;SDS011;63131;52.298;8.056;2023-04-25T06:08:44;12.25;;;2.80;;
74624;SDS011;63131;52.298;8.056;2023-04-25T06:11:09;9.07;;;2.97;;
74624;SDS011;63131;52.298;8.056;2023-04-25T06:13:35;6.93;;;2.25;;
74624;SDS011;63131;52.298;8.056;2023-04-25T06:16:00;12.88;;;3.08;;
74624;SDS011;63131;52.298;8.056;2023-04-25T06:18:26;14.43;;;3.38;;
74624;SDS011;63131;52.298;8.056;2023-04-25T06:20:51;11.57;;;2.53;;
74624;SDS011;63131;52.298;8.056;2023-04-25T06:23:16;8.82;;;3.22;;
74624;SDS011;63131;52.298;8.056;2023-04-25T06:25:41;9.32;;;2.45;;
74624;SDS011;63131;52.298;8.056;2023-04-25T06:28:07;11.90;;;2.47;;
74624;SDS011;63131;52.298;8.056;2023-04-25T06:30:32;10.07;;;2.88;;
74624;SDS011;63131;52.298;8.056;2023-04-25T06:32:57;9.90;;;2.88;;
74624;SDS011;63131;52.298;8.056;2023-04-25T06:35:23;8.88;;;2.67;;
74624;SDS011;63131;52.298;8.056;2023-04-25T06:37:48;9.23;;;2.50;;
74624;SDS011;63131;52.298;8.056;2023-04-25T06:40:13;8.30;;;2.25;;
74624;SDS011;63131;52.298;8.056;2023-04-25T06:42:39;11.18;;;3.20;;
74624;SDS011;63131;52.298;8.056;2023-04-25T06:45:05;12.68;;;3.03;;
74624;SDS011;63131;52.298;8.056;2023-04-25T06:47:31;10.10;;;2.30;;
74624;SDS011;63131;52.298;8.056;2023-04-25T06:49:56;9.05;;;2.78;;
74624;SDS011;63131;52.298;8.056;2023-04-25T06:52:21;9.38;;;2.50;;
74624;SDS011;63131;52.298;8.056;2023-04-25T06:54:47;11.55;;;2.88;;
74624;SDS011;63131;52.298;8.056;2023-04-25T06:57:12;9.43;;;2.63;;
74624;SDS011;63131;52.298;8.056;2023-04-25T06:59:38;7.72;;;2.97;;
74624;SDS011;63131;52.298;8.056;2023-04-25T07:02:03;10.50;;;2.22;;
74624;SDS011;63131;52.298;8.056;2023-04-25T07:04:29;16.42;;;3.38;;
74624;SDS011;63131;52.298;8.056;2023-04-25T07:06:55;10.45;;;2.33;;
74624;SDS011;63131;52.298;8.056;2023-04-25T07:09:21;18.92;;;3.75;;
74624;SDS011;63131;52.298;8.056;2023-04-25T07:11:47;7.40;;;2.20;;
74624;SDS011;63131;52.298;8.056;2023-04-25T07:14:12;12.02;;;2.13;;
74624;SDS011;63131;52.298;8.056;2023-04-25T07:16:37;6.90;;;1.63;;
74624;SDS011;63131;52.298;8.056;2023-04-25T07:19:03;9.00;;;1.90;;
74624;SDS011;63131;52.298;8.056;2023-04-25T07:21:28;10.98;;;2.47;;
74624;SDS011;63131;52.298;8.056;2023-04-25T07:23:53;8.30;;;1.80;;
74624;SDS011;63131;52.298;8.056;2023-04-25T07:26:19;8.05;;;3.15;;
74624;SDS011;63131;52.298;8.056;2023-04-25T07:28:44;5.75;;;1.58;;
74624;SDS011;63131;52.298;8.056;2023-04-25T07:31:11;7.72;;;1.70;;
74624;SDS011;63131;52.298;8.056;2023-04-25T07:33:37;8.10;;;1.95;;
74624;SDS011;63131;52.298;8.056;2023-04-25T07:36:02;4.32;;;1.10;;
74624;SDS011;63131;52.298;8.056;2023-04-25T07:38:28;6.97;;;2.03;;
74624;SDS011;63131;52.298;8.056;2023-04-25T07:40:53;2.58;;;1.08;;
74624;SDS011;63131;52.298;8.056;2023-04-25T07:43:18;7.05;;;1.65;;
74624;SDS011;63131;52.298;8.056;2023-04-25T07:45:44;8.43;;;2.83;;
74624;SDS011;63131;52.298;8.056;2023-04-25T07:48:09;12.10;;;2.20;;
74624;SDS011;63131;52.298;8.056;2023-04-25T07:50:35;6.72;;;2.17;;
74624;SDS011;63131;52.298;8.056;2023-04-25T07:53:00;9.43;;;2.03;;
74624;SDS011;63131;52.298;8.056;2023-04-25T07:55:26;6.60;;;1.60;;
74624;SDS011;63131;52.298;8.056;2023-04-25T07:57:51;4.97;;;1.90;;
74624;SDS011;63131;52.298;8.056;2023-04-25T08:00:17;7.60;;;1.48;;
74624;SDS011;63131;52.298;8.056;2023-04-25T08:02:42;8.10;;;1.40;;
74624;SDS011;63131;52.298;8.056;2023-04-25T08:05:08;8.25;;;1.95;;
74624;SDS011;63131;52.298;8.056;2023-04-25T08:07:36;4.97;;;1.60;;
74624;SDS011;63131;52.298;8.056;2023-04-25T08:10:02;6.88;;;1.40;;
74624;SDS011;63131;52.298;8.056;2023-04-25T08:12:28;10.65;;;1.95;;
74624;SDS011;63131;52.298;8.056;2023-04-25T08:14:53;8.02;;;1.83;;
74624;SDS011;63131;52.298;8.056;2023-04-25T08:17:25;5.40;;;1.25;;
74624;SDS011;63131;52.298;8.056;2023-04-25T08:19:50;7.47;;;1.77;;
74624;SDS011;63131;52.298;8.056;2023-04-25T08:22:16;6.57;;;2.00;;
74624;SDS011;63131;52.298;8.056;2023-04-25T08:24:41;6.03;;;1.02;;
74624;SDS011;63131;52.298;8.056;2023-04-25T08:27:07;7.70;;;1.30;;
74624;SDS011;63131;52.298;8.056;2023-04-25T08:29:32;5.47;;;1.42;;
74624;SDS011;63131;52.298;8.056;2023-04-25T08:31:58;5.43;;;1.35;;
74624;SDS011;63131;52.298;8.056;2023-04-25T08:34:24;6.00;;;1.35;;
74624;SDS011;63131;52.298;8.056;2023-04-25T08:36:50;3.60;;;1.10;;
74624;SDS011;63131;52.298;8.056;2023-04-25T08:39:15;4.15;;;1.45;;
74624;SDS011;63131;52.298;8.056;2023-04-25T08:41:41;6.10;;;1.38;;
74624;SDS011;63131;52.298;8.056;2023-04-25T08:44:06;5.07;;;1.10;;
74624;SDS011;63131;52.298;8.056;2023-04-25T08:46:35;6.63;;;1.20;;
74624;SDS011;63131;52.298;8.056;2023-04-25T08:49:03;2.72;;;1.08;;
74624;SDS011;63131;52.298;8.056;2023-04-25T08:51:31;8.85;;;1.88;;
74624;SDS011;63131;52.298;8.056;2023-04-25T08:53:57;5.07;;;1.20;;
74624;SDS011;63131;52.298;8.056;2023-04-25T08:56:36;6.07;;;1.58;;
74624;SDS011;63131;52.298;8.056;2023-04-25T08:59:02;7.60;;;1.65;;
74624;SDS011;63131;52.298;8.056;2023-04-25T09:01:28;6.00;;;1.45;;
74624;SDS011;63131;52.298;8.056;2023-04-25T09:03:53;4.40;;;1.35;;
74624;SDS011;63131;52.298;8.056;2023-04-25T09:06:19;8.95;;;1.90;;
74624;SDS011;63131;52.298;8.056;2023-04-25T09:08:44;4.50;;;1.10;;
74624;SDS011;63131;52.298;8.056;2023-04-25T09:11:10;4.35;;;1.20;;
74624;SDS011;63131;52.298;8.056;2023-04-25T09:13:37;3.42;;;0.73;;
74624;SDS011;63131;52.298;8.056;2023-04-25T09:16:03;5.63;;;1.52;;
74624;SDS011;63131;52.298;8.056;2023-04-25T09:18:29;3.97;;;1.10;;
74624;SDS011;63131;52.298;8.056;2023-04-25T09:21:04;5.38;;;1.13;;
74624;SDS011;63131;52.298;8.056;2023-04-25T09:23:31;5.00;;;1.20;;
74624;SDS011;63131;52.298;8.056;2023-04-25T09:26:07;7.60;;;1.00;;
74624;SDS011;63131;52.298;8.056;2023-04-25T09:28:32;2.95;;;0.80;;
74624;SDS011;63131;52.298;8.056;2023-04-25T09:31:00;3.22;;;0.95;;
74624;SDS011;63131;52.298;8.056;2023-04-25T09:33:29;2.97;;;0.90;;
74624;SDS011;63131;52.298;8.056;2023-04-25T09:36:02;1.27;;;0.55;;
74624;SDS011;63131;52.298;8.056;2023-04-25T09:38:32;4.85;;;1.27;;
74624;SDS011;63131;52.298;8.056;2023-04-25T09:41:05;1.83;;;0.80;;
74624;SDS011;63131;52.298;8.056;2023-04-25T09:43:30;5.22;;;2.13;;
74624;SDS011;63131;52.298;8.056;2023-04-25T09:45:56;3.65;;;1.48;;
74624;SDS011;63131;52.298;8.056;2023-04-25T09:48:24;7.28;;;1.60;;
74624;SDS011;63131;52.298;8.056;2023-04-25T09:53:28;4.95;;;1.10;;
74624;SDS011;63131;52.298;8.056;2023-04-25T09:55:53;8.15;;;1.70;;
74624;SDS011;63131;52.298;8.056;2023-04-25T09:58:19;4.78;;;1.30;;
74624;SDS011;63131;52.298;8.056;2023-04-25T10:00:45;7.10;;;1.65;;
74624;SDS011;63131;52.298;8.056;2023-04-25T10:03:10;3.90;;;1.45;;
74624;SDS011;63131;52.298;8.056;2023-04-25T10:05:36;6.60;;;1.40;;
74624;SDS011;63131;52.298;8.056;2023-04-25T10:10:31;4.78;;;1.30;;
74624;SDS011;63131;52.298;8.056;2023-04-25T10:13:01;3.33;;;1.15;;
74624;SDS011;63131;52.298;8.056;2023-04-25T10:15:28;8.00;;;2.03;;
74624;SDS011;63131;52.298;8.056;2023-04-25T10:17:54;7.00;;;1.20;;
74624;SDS011;63131;52.298;8.056;2023-04-25T10:20:19;3.53;;;1.08;;
74624;SDS011;63131;52.298;8.056;2023-04-25T10:22:45;6.07;;;1.30;;
74624;SDS011;63131;52.298;8.056;2023-04-25T10:25:12;11.20;;;1.50;;
74624;SDS011;63131;52.298;8.056;2023-04-25T10:27:38;5.70;;;1.23;;
74624;SDS011;63131;52.298;8.056;2023-04-25T10:32:37;6.60;;;1.25;;
74624;SDS011;63131;52.298;8.056;2023-04-25T10:35:19;4.65;;;1.83;;
74624;SDS011;63131;52.298;8.056;2023-04-25T10:38:08;6.90;;;1.70;;
74624;SDS011;63131;52.298;8.056;2023-04-25T10:40:35;6.93;;;2.20;;
74624;SDS011;63131;52.298;8.056;2023-04-25T10:46:47;5.45;;;1.10;;
74624;SDS011;63131;52.298;8.056;2023-04-25T10:48:56;6.50;;;1.50;;
74624;SDS011;63131;52.298;8.056;2023-04-25T10:51:24;7.25;;;1.63;;
74624;SDS011;63131;52.298;8.056;2023-04-25T10:56:20;4.72;;;1.17;;
74624;SDS011;63131;52.298;8.056;2023-04-25T11:01:12;3.05;;;0.90;;
74624;SDS011;63131;52.298;8.056;2023-04-25T11:03:41;4.20;;;1.10;;
74624;SDS011;63131;52.298;8.056;2023-04-25T11:09:02;3.30;;;1.15;;
74624;SDS011;63131;52.298;8.056;2023-04-25T11:11:28;5.03;;;1.63;;
74624;SDS011;63131;52.298;8.056;2023-04-25T11:13:54;3.40;;;1.00;;
74624;SDS011;63131;52.298;8.056;2023-04-25T11:16:19;5.57;;;1.30;;
74624;SDS011;63131;52.298;8.056;2023-04-25T11:18:49;8.43;;;2.45;;
74624;SDS011;63131;52.298;8.056;2023-04-25T11:21:15;3.30;;;1.00;;
74624;SDS011;63131;52.298;8.056;2023-04-25T11:23:40;5.18;;;1.17;;
74624;SDS011;63131;52.298;8.056;2023-04-25T11:26:06;5.10;;;1.20;;
74624;SDS011;63131;52.298;8.056;2023-04-25T11:28:31;6.25;;;1.67;;
74624;SDS011;63131;52.298;8.056;2023-04-25T11:30:57;4.32;;;1.20;;
74624;SDS011;63131;52.298;8.056;2023-04-25T11:33:23;4.10;;;1.20;;
74624;SDS011;63131;52.298;8.056;2023-04-25T11:35:48;5.22;;;1.40;;
74624;SDS011;63131;52.298;8.056;2023-04-25T11:38:14;6.60;;;1.35;;
74624;SDS011;63131;52.298;8.056;2023-04-25T11:40:39;6.85;;;1.25;;
74624;SDS011;63131;52.298;8.056;2023-04-25T11:43:14;4.70;;;1.25;;
74624;SDS011;63131;52.298;8.056;2023-04-25T11:45:39;8.02;;;1.60;;
74624;SDS011;63131;52.298;8.056;2023-04-25T11:48:04;4.15;;;1.05;;
74624;SDS011;63131;52.298;8.056;2023-04-25T11:50:30;5.03;;;1.25;;
74624;SDS011;63131;52.298;8.056;2023-04-25T11:52:56;3.40;;;1.17;;
74624;SDS011;63131;52.298;8.056;2023-04-25T11:55:21;4.72;;;1.35;;
74624;SDS011;63131;52.298;8.056;2023-04-25T11:57:48;6.00;;;1.08;;
74624;SDS011;63131;52.298;8.056;2023-04-25T12:00:15;4.20;;;1.05;;
74624;SDS011;63131;52.298;8.056;2023-04-25T12:02:43;3.28;;;0.85;;
74624;SDS011;63131;52.298;8.056;2023-04-25T12:05:09;4.05;;;1.02;;
74624;SDS011;63131;52.298;8.056;2023-04-25T12:07:35;2.30;;;0.68;;
74624;SDS011;63131;52.298;8.056;2023-04-25T12:10:08;3.33;;;1.50;;
74624;SDS011;63131;52.298;8.056;2023-04-25T12:12:41;2.22;;;0.65;;
74624;SDS011;63131;52.298;8.056;2023-04-25T12:17:41;3.25;;;0.65;;
74624;SDS011;63131;52.298;8.056;2023-04-25T12:20:11;1.70;;;0.60;;
74624;SDS011;63131;52.298;8.056;2023-04-25T12:22:40;3.05;;;0.82;;
74624;SDS011;63131;52.298;8.056;2023-04-25T12:25:09;3.10;;;0.68;;
74624;SDS011;63131;52.298;8.056;2023-04-25T12:27:38;4.53;;;1.30;;
74624;SDS011;63131;52.298;8.056;2023-04-25T12:30:07;4.65;;;1.15;;
74624;SDS011;63131;52.298;8.056;2023-04-25T12:32:32;3.50;;;1.00;;
74624;SDS011;63131;52.298;8.056;2023-04-25T12:34:58;7.13;;;1.98;;
74624;SDS011;63131;52.298;8.056;2023-04-25T12:37:23;4.65;;;1.15;;
74624;SDS011;63131;52.298;8.056;2023-04-25T12:39:48;2.40;;;0.98;;
74624;SDS011;63131;52.298;8.056;2023-04-25T12:42:14;2.70;;;0.95;;
74624;SDS011;63131;52.298;8.056;2023-04-25T12:44:39;4.15;;;1.38;;
74624;SDS011;63131;52.298;8.056;2023-04-25T12:47:05;1.70;;;1.00;;
74624;SDS011;63131;52.298;8.056;2023-04-25T12:49:31;3.65;;;1.20;;
74624;SDS011;63131;52.298;8.056;2023-04-25T12:51:56;3.22;;;0.90;;
74624;SDS011;63131;52.298;8.056;2023-04-25T12:54:22;2.15;;;0.75;;
74624;SDS011;63131;52.298;8.056;2023-04-25T12:56:47;8.20;;;1.27;;
74624;SDS011;63131;52.298;8.056;2023-04-25T12:59:13;4.00;;;1.08;;
74624;SDS011;63131;52.298;8.056;2023-04-25T13:01:39;3.95;;;1.25;;
74624;SDS011;63131;52.298;8.056;2023-04-25T13:04:04;5.35;;;0.98;;
74624;SDS011;63131;52.298;8.056;2023-04-25T13:06:29;4.82;;;1.02;;
74624;SDS011;63131;52.298;8.056;2023-04-25T13:08:55;4.60;;;1.20;;
74624;SDS011;63131;52.298;8.056;2023-04-25T13:11:21;1.02;;;0.55;;
74624;SDS011;63131;52.298;8.056;2023-04-25T13:13:46;4.32;;;1.42;;
74624;SDS011;63131;52.298;8.056;2023-04-25T13:16:11;3.83;;;1.00;;
74624;SDS011;63131;52.298;8.056;2023-04-25T13:18:39;4.05;;;1.20;;
74624;SDS011;63131;52.298;8.056;2023-04-25T13:21:04;6.13;;;1.15;;
74624;SDS011;63131;52.298;8.056;2023-04-25T13:23:29;5.57;;;1.08;;
74624;SDS011;63131;52.298;8.056;2023-04-25T13:25:55;5.03;;;1.25;;
74624;SDS011;63131;52.298;8.056;2023-04-25T13:28:22;3.95;;;0.98;;
74624;SDS011;63131;52.298;8.056;2023-04-25T13:30:48;4.07;;;1.13;;
74624;SDS011;63131;52.298;8.056;2023-04-25T13:33:14;1.33;;;1.00;;
74624;SDS011;63131;52.298;8.056;2023-04-25T13:35:40;3.40;;;1.00;;
74624;SDS011;63131;52.298;8.056;2023-04-25T13:38:06;4.63;;;1.35;;
74624;SDS011;63131;52.298;8.056;2023-04-25T13:40:31;5.32;;;1.25;;
74624;SDS011;63131;52.298;8.056;2023-04-25T13:42:57;1.65;;;0.77;;
74624;SDS011;63131;52.298;8.056;2023-04-25T13:45:22;2.53;;;0.80;;
74624;SDS011;63131;52.298;8.056;2023-04-25T13:47:47;4.20;;;1.15;;
74624;SDS011;63131;52.298;8.056;2023-04-25T13:50:13;3.17;;;0.90;;
74624;SDS011;63131;52.298;8.056;2023-04-25T13:52:38;4.93;;;1.05;;
74624;SDS011;63131;52.298;8.056;2023-04-25T13:55:04;3.70;;;0.98;;
74624;SDS011;63131;52.298;8.056;2023-04-25T13:57:31;3.08;;;0.98;;
74624;SDS011;63131;52.298;8.056;2023-04-25T13:59:57;5.93;;;1.25;;
74624;SDS011;63131;52.298;8.056;2023-04-25T14:02:22;6.90;;;1.40;;
74624;SDS011;63131;52.298;8.056;2023-04-25T14:04:47;3.55;;;1.08;;
74624;SDS011;63131;52.298;8.056;2023-04-25T14:07:13;3.95;;;1.15;;
74624;SDS011;63131;52.298;8.056;2023-04-25T14:09:42;0.80;;;0.75;;
74624;SDS011;63131;52.298;8.056;2023-04-25T14:12:08;2.10;;;1.60;;
74624;SDS011;63131;52.298;8.056;2023-04-25T14:14:33;2.53;;;1.05;;
74624;SDS011;63131;52.298;8.056;2023-04-25T14:16:59;4.20;;;0.98;;
74624;SDS011;63131;52.298;8.056;2023-04-25T14:19:24;3.83;;;1.20;;
74624;SDS011;63131;52.298;8.056;2023-04-25T14:21:49;3.13;;;1.15;;
74624;SDS011;63131;52.298;8.056;2023-04-25T14:24:15;3.65;;;1.20;;
74624;SDS011;63131;52.298;8.056;2023-04-25T14:26:41;2.38;;;1.10;;
74624;SDS011;63131;52.298;8.056;2023-04-25T14:29:07;2.83;;;1.13;;
74624;SDS011;63131;52.298;8.056;2023-04-25T14:31:33;5.43;;;1.50;;
74624;SDS011;63131;52.298;8.056;2023-04-25T14:33:59;4.50;;;1.40;;
74624;SDS011;63131;52.298;8.056;2023-04-25T14:36:24;5.22;;;1.88;;
74624;SDS011;63131;52.298;8.056;2023-04-25T14:38:51;5.50;;;1.38;;
74624;SDS011;63131;52.298;8.056;2023-04-25T14:41:16;6.22;;;1.50;;
74624;SDS011;63131;52.298;8.056;2023-04-25T14:43:42;3.67;;;1.40;;
74624;SDS011;63131;52.298;8.056;2023-04-25T14:46:07;4.80;;;1.42;;
74624;SDS011;63131;52.298;8.056;2023-04-25T14:48:33;4.10;;;1.35;;
74624;SDS011;63131;52.298;8.056;2023-04-25T14:50:58;4.53;;;1.33;;
74624;SDS011;63131;52.298;8.056;2023-04-25T14:53:25;4.63;;;1.25;;
74624;SDS011;63131;52.298;8.056;2023-04-25T14:55:50;4.88;;;1.10;;
74624;SDS011;63131;52.298;8.056;2023-04-25T14:58:16;5.35;;;2.00;;
74624;SDS011;63131;52.298;8.056;2023-04-25T15:00:41;3.78;;;1.20;;
74624;SDS011;63131;52.298;8.056;2023-04-25T15:03:08;4.85;;;1.50;;